Pasco, Washington
Current Conditions -  °F | °C
As of 8:53 AM on Saturday 22 Nov 2014 (Local Time) from KPSC Reporting Station
Clear Clear  
Wind Chill: 37°   Ceiling: Unl
Heat Index: 42°   Visibility: 10mi
Dew Point: 38°   Wind: 9mph
Humidity: 85%   Direction: 230°SW
Pressure: 29.77"   Gusts: NA
Location:  46.24°N, 119.09°W
Report Text: KPSC 221653Z 23008KT 10SM CLR 06/03 A2977 RMK AO2 SLP083 T00560033 $
Loading
Personal Weather Stations






























Interactive Weather Map New forecast layout! Learn more

10-Day Weather Forecast

Advertisements
Track Severe Weather on mobile